Streamwood, Illinois
Current Conditions -  °F | °C
As of 1:52 PM on Thursday 29 Jan 2015 (Local Time) from KDPA Reporting Station
Light Rain Light Rain  
Wind Chill: 23°   Ceiling: 2000
Heat Index: 34°   Visibility: 9mi
Dew Point: 26°   Wind: 17mph
Humidity: 73%   Direction: 320°NW
Pressure: 29.99"   Gusts: 26mph
Location:  42.01°N, 88.17°W
Report Text: KDPA 291952Z 32015G23KT 9SM -RA OVC020 01/M03 A2999 RMK AO2 SLP162 P0000 T00111033
Loading
Personal Weather Stations






























Interactive Weather Map New forecast layout! Learn more

10-Day Weather Forecast

Advertisements
Track Severe Weather on mobile